sensor_id;sensor_type;location;lat;lon;timestamp;P1;durP1;ratioP1;P2;durP2;ratioP2
81386;SDS011;70842;50.744;7.114;2023-11-19T00:00:07;3.80;;;3.50;;
81386;SDS011;70842;50.744;7.114;2023-11-19T00:02:41;4.63;;;4.28;;
81386;SDS011;70842;50.744;7.114;2023-11-19T00:05:09;6.15;;;5.75;;
81386;SDS011;70842;50.744;7.114;2023-11-19T00:07:38;4.05;;;3.75;;
81386;SDS011;70842;50.744;7.114;2023-11-19T00:10:16;3.50;;;3.25;;
81386;SDS011;70842;50.744;7.114;2023-11-19T00:12:47;3.17;;;2.92;;
81386;SDS011;70842;50.744;7.114;2023-11-19T00:15:15;3.25;;;2.95;;
81386;SDS011;70842;50.744;7.114;2023-11-19T00:17:44;4.43;;;3.70;;
81386;SDS011;70842;50.744;7.114;2023-11-19T00:20:15;3.58;;;3.28;;
81386;SDS011;70842;50.744;7.114;2023-11-19T00:22:43;3.47;;;3.17;;
81386;SDS011;70842;50.744;7.114;2023-11-19T00:25:13;3.28;;;2.97;;
81386;SDS011;70842;50.744;7.114;2023-11-19T00:27:40;3.00;;;2.70;;
81386;SDS011;70842;50.744;7.114;2023-11-19T00:30:06;3.67;;;3.38;;
81386;SDS011;70842;50.744;7.114;2023-11-19T00:32:34;3.28;;;3.08;;
81386;SDS011;70842;50.744;7.114;2023-11-19T00:35:02;4.32;;;4.03;;
81386;SDS011;70842;50.744;7.114;2023-11-19T00:37:29;2.88;;;2.40;;
81386;SDS011;70842;50.744;7.114;2023-11-19T00:39:55;3.03;;;2.72;;
81386;SDS011;70842;50.744;7.114;2023-11-19T00:42:22;2.75;;;2.53;;
81386;SDS011;70842;50.744;7.114;2023-11-19T00:44:50;3.72;;;3.00;;
81386;SDS011;70842;50.744;7.114;2023-11-19T00:47:17;3.25;;;2.95;;
81386;SDS011;70842;50.744;7.114;2023-11-19T00:49:47;3.38;;;3.05;;
81386;SDS011;70842;50.744;7.114;2023-11-19T00:52:17;3.45;;;3.15;;
81386;SDS011;70842;50.744;7.114;2023-11-19T00:54:44;3.10;;;2.80;;
81386;SDS011;70842;50.744;7.114;2023-11-19T00:57:10;2.42;;;2.13;;
81386;SDS011;70842;50.744;7.114;2023-11-19T00:59:37;3.47;;;3.17;;
81386;SDS011;70842;50.744;7.114;2023-11-19T01:02:04;3.30;;;3.08;;
81386;SDS011;70842;50.744;7.114;2023-11-19T01:04:35;3.17;;;2.97;;
81386;SDS011;70842;50.744;7.114;2023-11-19T01:07:03;2.55;;;2.17;;
81386;SDS011;70842;50.744;7.114;2023-11-19T01:09:33;2.55;;;2.30;;
81386;SDS011;70842;50.744;7.114;2023-11-19T01:12:01;4.78;;;4.45;;
81386;SDS011;70842;50.744;7.114;2023-11-19T01:14:28;3.65;;;3.35;;
81386;SDS011;70842;50.744;7.114;2023-11-19T01:16:55;3.08;;;2.83;;
81386;SDS011;70842;50.744;7.114;2023-11-19T01:19:22;5.93;;;5.53;;
81386;SDS011;70842;50.744;7.114;2023-11-19T01:21:49;5.28;;;4.88;;
81386;SDS011;70842;50.744;7.114;2023-11-19T01:24:17;3.05;;;2.85;;
81386;SDS011;70842;50.744;7.114;2023-11-19T01:26:43;2.40;;;1.95;;
81386;SDS011;70842;50.744;7.114;2023-11-19T01:29:12;4.50;;;2.80;;
81386;SDS011;70842;50.744;7.114;2023-11-19T01:31:42;4.00;;;3.60;;
81386;SDS011;70842;50.744;7.114;2023-11-19T01:34:09;8.40;;;5.47;;
81386;SDS011;70842;50.744;7.114;2023-11-19T01:36:37;2.85;;;2.63;;
81386;SDS011;70842;50.744;7.114;2023-11-19T01:39:05;3.08;;;2.85;;
81386;SDS011;70842;50.744;7.114;2023-11-19T01:41:35;3.13;;;2.20;;
81386;SDS011;70842;50.744;7.114;2023-11-19T01:44:02;3.30;;;3.05;;
81386;SDS011;70842;50.744;7.114;2023-11-19T01:46:29;3.20;;;3.00;;
81386;SDS011;70842;50.744;7.114;2023-11-19T01:48:59;2.28;;;2.00;;
81386;SDS011;70842;50.744;7.114;2023-11-19T01:51:27;3.25;;;3.03;;
81386;SDS011;70842;50.744;7.114;2023-11-19T01:53:54;3.05;;;2.85;;
81386;SDS011;70842;50.744;7.114;2023-11-19T01:56:23;4.28;;;3.97;;
81386;SDS011;70842;50.744;7.114;2023-11-19T01:58:50;2.30;;;2.10;;
81386;SDS011;70842;50.744;7.114;2023-11-19T02:01:20;3.58;;;3.38;;
81386;SDS011;70842;50.744;7.114;2023-11-19T02:03:47;3.45;;;3.15;;
81386;SDS011;70842;50.744;7.114;2023-11-19T02:06:13;4.40;;;4.10;;
81386;SDS011;70842;50.744;7.114;2023-11-19T02:08:41;2.13;;;1.85;;
81386;SDS011;70842;50.744;7.114;2023-11-19T02:11:09;3.97;;;3.67;;
81386;SDS011;70842;50.744;7.114;2023-11-19T02:13:37;3.33;;;3.13;;
81386;SDS011;70842;50.744;7.114;2023-11-19T02:16:06;2.53;;;2.05;;
81386;SDS011;70842;50.744;7.114;2023-11-19T02:18:35;2.80;;;2.40;;
81386;SDS011;70842;50.744;7.114;2023-11-19T02:21:02;2.90;;;2.70;;
81386;SDS011;70842;50.744;7.114;2023-11-19T02:23:28;3.60;;;3.40;;
81386;SDS011;70842;50.744;7.114;2023-11-19T02:26:10;2.63;;;2.42;;
81386;SDS011;70842;50.744;7.114;2023-11-19T02:28:40;2.50;;;2.30;;
81386;SDS011;70842;50.744;7.114;2023-11-19T02:31:08;2.58;;;2.38;;
81386;SDS011;70842;50.744;7.114;2023-11-19T02:33:38;3.50;;;2.67;;
81386;SDS011;70842;50.744;7.114;2023-11-19T02:36:05;3.38;;;3.08;;
81386;SDS011;70842;50.744;7.114;2023-11-19T02:38:33;3.28;;;2.22;;
81386;SDS011;70842;50.744;7.114;2023-11-19T02:41:03;3.28;;;2.97;;
81386;SDS011;70842;50.744;7.114;2023-11-19T02:43:34;4.20;;;2.58;;
81386;SDS011;70842;50.744;7.114;2023-11-19T02:46:01;3.17;;;2.50;;
81386;SDS011;70842;50.744;7.114;2023-11-19T02:48:41;4.07;;;2.58;;
81386;SDS011;70842;50.744;7.114;2023-11-19T02:51:09;3.22;;;2.58;;
81386;SDS011;70842;50.744;7.114;2023-11-19T02:53:36;3.55;;;3.22;;
81386;SDS011;70842;50.744;7.114;2023-11-19T02:56:03;2.70;;;2.50;;
81386;SDS011;70842;50.744;7.114;2023-11-19T02:58:46;3.88;;;3.58;;
81386;SDS011;70842;50.744;7.114;2023-11-19T03:01:13;3.95;;;3.40;;
81386;SDS011;70842;50.744;7.114;2023-11-19T03:03:49;2.83;;;2.58;;
81386;SDS011;70842;50.744;7.114;2023-11-19T03:06:21;3.20;;;2.75;;
81386;SDS011;70842;50.744;7.114;2023-11-19T03:08:48;2.50;;;2.20;;
81386;SDS011;70842;50.744;7.114;2023-11-19T03:11:14;4.70;;;4.40;;
81386;SDS011;70842;50.744;7.114;2023-11-19T03:13:41;2.67;;;2.47;;
81386;SDS011;70842;50.744;7.114;2023-11-19T03:16:08;4.47;;;2.75;;
81386;SDS011;70842;50.744;7.114;2023-11-19T03:18:34;4.38;;;4.07;;
81386;SDS011;70842;50.744;7.114;2023-11-19T03:21:01;6.50;;;6.10;;
81386;SDS011;70842;50.744;7.114;2023-11-19T03:23:27;2.80;;;2.55;;
81386;SDS011;70842;50.744;7.114;2023-11-19T03:25:54;3.67;;;3.38;;
81386;SDS011;70842;50.744;7.114;2023-11-19T03:28:20;3.85;;;3.50;;
81386;SDS011;70842;50.744;7.114;2023-11-19T03:30:47;2.63;;;2.33;;
81386;SDS011;70842;50.744;7.114;2023-11-19T03:33:13;2.42;;;2.22;;
81386;SDS011;70842;50.744;7.114;2023-11-19T03:35:39;3.28;;;3.05;;
81386;SDS011;70842;50.744;7.114;2023-11-19T03:38:07;3.13;;;2.83;;
81386;SDS011;70842;50.744;7.114;2023-11-19T03:40:33;2.28;;;1.75;;
81386;SDS011;70842;50.744;7.114;2023-11-19T03:43:00;3.63;;;3.33;;
81386;SDS011;70842;50.744;7.114;2023-11-19T03:45:26;3.13;;;2.92;;
81386;SDS011;70842;50.744;7.114;2023-11-19T03:47:53;4.15;;;2.47;;
81386;SDS011;70842;50.744;7.114;2023-11-19T03:50:19;3.90;;;2.63;;
81386;SDS011;70842;50.744;7.114;2023-11-19T03:52:47;2.83;;;2.40;;
81386;SDS011;70842;50.744;7.114;2023-11-19T03:55:13;3.65;;;2.30;;
81386;SDS011;70842;50.744;7.114;2023-11-19T03:57:40;5.07;;;3.55;;
81386;SDS011;70842;50.744;7.114;2023-11-19T04:00:07;5.93;;;5.28;;
81386;SDS011;70842;50.744;7.114;2023-11-19T04:02:36;3.58;;;2.88;;
81386;SDS011;70842;50.744;7.114;2023-11-19T04:05:03;3.85;;;2.83;;
81386;SDS011;70842;50.744;7.114;2023-11-19T04:07:31;4.45;;;3.50;;
81386;SDS011;70842;50.744;7.114;2023-11-19T04:09:58;4.95;;;4.35;;
81386;SDS011;70842;50.744;7.114;2023-11-19T04:12:25;5.32;;;2.90;;
81386;SDS011;70842;50.744;7.114;2023-11-19T04:14:51;8.05;;;7.45;;
81386;SDS011;70842;50.744;7.114;2023-11-19T04:17:20;6.05;;;3.85;;
81386;SDS011;70842;50.744;7.114;2023-11-19T04:19:47;7.38;;;6.88;;
81386;SDS011;70842;50.744;7.114;2023-11-19T04:22:13;3.78;;;3.22;;
81386;SDS011;70842;50.744;7.114;2023-11-19T04:24:40;3.78;;;3.17;;
81386;SDS011;70842;50.744;7.114;2023-11-19T04:27:07;4.80;;;4.32;;
81386;SDS011;70842;50.744;7.114;2023-11-19T04:29:34;4.32;;;4.00;;
81386;SDS011;70842;50.744;7.114;2023-11-19T04:32:00;3.67;;;3.25;;
81386;SDS011;70842;50.744;7.114;2023-11-19T04:34:27;4.00;;;3.08;;
81386;SDS011;70842;50.744;7.114;2023-11-19T04:36:53;3.30;;;2.88;;
81386;SDS011;70842;50.744;7.114;2023-11-19T04:39:20;3.97;;;3.67;;
81386;SDS011;70842;50.744;7.114;2023-11-19T04:41:47;9.07;;;8.55;;
81386;SDS011;70842;50.744;7.114;2023-11-19T04:44:20;3.38;;;2.63;;
81386;SDS011;70842;50.744;7.114;2023-11-19T04:46:47;5.15;;;2.88;;
81386;SDS011;70842;50.744;7.114;2023-11-19T04:49:13;6.53;;;6.00;;
81386;SDS011;70842;50.744;7.114;2023-11-19T04:51:41;6.55;;;4.30;;
81386;SDS011;70842;50.744;7.114;2023-11-19T04:54:08;7.00;;;3.58;;
81386;SDS011;70842;50.744;7.114;2023-11-19T04:56:35;7.72;;;4.75;;
81386;SDS011;70842;50.744;7.114;2023-11-19T04:59:03;5.43;;;3.60;;
81386;SDS011;70842;50.744;7.114;2023-11-19T05:01:32;6.75;;;2.90;;
81386;SDS011;70842;50.744;7.114;2023-11-19T05:03:59;4.70;;;4.30;;
81386;SDS011;70842;50.744;7.114;2023-11-19T05:06:27;6.53;;;5.28;;
81386;SDS011;70842;50.744;7.114;2023-11-19T05:08:55;5.07;;;4.57;;
81386;SDS011;70842;50.744;7.114;2023-11-19T05:11:23;5.68;;;3.53;;
81386;SDS011;70842;50.744;7.114;2023-11-19T05:13:49;5.22;;;4.40;;
81386;SDS011;70842;50.744;7.114;2023-11-19T05:16:16;6.18;;;4.50;;
81386;SDS011;70842;50.744;7.114;2023-11-19T05:18:43;6.38;;;3.60;;
81386;SDS011;70842;50.744;7.114;2023-11-19T05:21:10;4.40;;;2.58;;
81386;SDS011;70842;50.744;7.114;2023-11-19T05:23:37;7.50;;;4.10;;
81386;SDS011;70842;50.744;7.114;2023-11-19T05:26:03;7.05;;;3.63;;
81386;SDS011;70842;50.744;7.114;2023-11-19T05:28:33;7.93;;;4.03;;
81386;SDS011;70842;50.744;7.114;2023-11-19T05:31:00;6.07;;;2.58;;
81386;SDS011;70842;50.744;7.114;2023-11-19T05:33:27;7.03;;;3.88;;
81386;SDS011;70842;50.744;7.114;2023-11-19T05:35:54;9.73;;;4.28;;
81386;SDS011;70842;50.744;7.114;2023-11-19T05:38:20;6.50;;;3.58;;
81386;SDS011;70842;50.744;7.114;2023-11-19T05:40:47;6.35;;;4.35;;
81386;SDS011;70842;50.744;7.114;2023-11-19T05:43:15;7.60;;;3.92;;
81386;SDS011;70842;50.744;7.114;2023-11-19T05:45:42;7.72;;;3.40;;
81386;SDS011;70842;50.744;7.114;2023-11-19T05:48:09;6.07;;;3.88;;
81386;SDS011;70842;50.744;7.114;2023-11-19T05:50:36;7.03;;;2.95;;
81386;SDS011;70842;50.744;7.114;2023-11-19T05:53:03;7.93;;;3.55;;
81386;SDS011;70842;50.744;7.114;2023-11-19T05:55:35;6.78;;;3.63;;
81386;SDS011;70842;50.744;7.114;2023-11-19T05:58:03;9.23;;;3.67;;
81386;SDS011;70842;50.744;7.114;2023-11-19T06:00:32;7.53;;;4.00;;
81386;SDS011;70842;50.744;7.114;2023-11-19T06:02:59;11.23;;;2.83;;
81386;SDS011;70842;50.744;7.114;2023-11-19T06:05:25;8.20;;;3.58;;
81386;SDS011;70842;50.744;7.114;2023-11-19T06:07:52;7.85;;;3.88;;
81386;SDS011;70842;50.744;7.114;2023-11-19T06:10:18;7.13;;;3.42;;
81386;SDS011;70842;50.744;7.114;2023-11-19T06:12:46;6.85;;;4.07;;
81386;SDS011;70842;50.744;7.114;2023-11-19T06:15:13;13.30;;;5.10;;
81386;SDS011;70842;50.744;7.114;2023-11-19T06:17:40;9.57;;;3.55;;
81386;SDS011;70842;50.744;7.114;2023-11-19T06:20:07;13.07;;;5.25;;
81386;SDS011;70842;50.744;7.114;2023-11-19T06:22:34;8.65;;;2.80;;
81386;SDS011;70842;50.744;7.114;2023-11-19T06:25:01;9.52;;;4.20;;
81386;SDS011;70842;50.744;7.114;2023-11-19T06:27:33;10.63;;;4.85;;
81386;SDS011;70842;50.744;7.114;2023-11-19T06:30:00;10.25;;;4.97;;
81386;SDS011;70842;50.744;7.114;2023-11-19T06:32:27;11.48;;;6.65;;
81386;SDS011;70842;50.744;7.114;2023-11-19T06:34:54;10.40;;;4.20;;
81386;SDS011;70842;50.744;7.114;2023-11-19T06:37:21;9.70;;;3.80;;
81386;SDS011;70842;50.744;7.114;2023-11-19T06:39:48;7.80;;;3.80;;
81386;SDS011;70842;50.744;7.114;2023-11-19T06:42:15;5.60;;;2.63;;
81386;SDS011;70842;50.744;7.114;2023-11-19T06:44:41;8.18;;;2.97;;
81386;SDS011;70842;50.744;7.114;2023-11-19T06:47:08;6.50;;;4.10;;
81386;SDS011;70842;50.744;7.114;2023-11-19T06:49:34;9.32;;;4.05;;
81386;SDS011;70842;50.744;7.114;2023-11-19T06:52:01;8.30;;;3.30;;
81386;SDS011;70842;50.744;7.114;2023-11-19T06:54:27;10.98;;;5.03;;
81386;SDS011;70842;50.744;7.114;2023-11-19T06:56:54;7.38;;;4.80;;
81386;SDS011;70842;50.744;7.114;2023-11-19T06:59:20;8.60;;;3.75;;
81386;SDS011;70842;50.744;7.114;2023-11-19T07:01:47;9.73;;;3.83;;
81386;SDS011;70842;50.744;7.114;2023-11-19T07:04:14;8.63;;;4.57;;
81386;SDS011;70842;50.744;7.114;2023-11-19T07:06:40;11.07;;;5.05;;
81386;SDS011;70842;50.744;7.114;2023-11-19T07:09:09;10.07;;;6.28;;
81386;SDS011;70842;50.744;7.114;2023-11-19T07:11:37;11.50;;;7.50;;
81386;SDS011;70842;50.744;7.114;2023-11-19T07:14:06;9.27;;;5.25;;
81386;SDS011;70842;50.744;7.114;2023-11-19T07:16:36;8.30;;;5.32;;
81386;SDS011;70842;50.744;7.114;2023-11-19T07:19:06;11.45;;;5.13;;
81386;SDS011;70842;50.744;7.114;2023-11-19T07:21:32;12.98;;;4.03;;
81386;SDS011;70842;50.744;7.114;2023-11-19T07:24:00;11.57;;;4.55;;
81386;SDS011;70842;50.744;7.114;2023-11-19T07:26:28;9.77;;;3.65;;
81386;SDS011;70842;50.744;7.114;2023-11-19T07:28:54;9.10;;;4.05;;
81386;SDS011;70842;50.744;7.114;2023-11-19T07:31:21;10.48;;;5.18;;
81386;SDS011;70842;50.744;7.114;2023-11-19T07:33:50;10.20;;;4.07;;
81386;SDS011;70842;50.744;7.114;2023-11-19T07:36:16;8.88;;;5.13;;
81386;SDS011;70842;50.744;7.114;2023-11-19T07:38:43;6.15;;;4.68;;
81386;SDS011;70842;50.744;7.114;2023-11-19T07:41:09;7.07;;;4.50;;
81386;SDS011;70842;50.744;7.114;2023-11-19T07:43:39;8.77;;;4.68;;
81386;SDS011;70842;50.744;7.114;2023-11-19T07:46:10;11.07;;;5.30;;
81386;SDS011;70842;50.744;7.114;2023-11-19T07:48:39;8.43;;;4.45;;
81386;SDS011;70842;50.744;7.114;2023-11-19T07:51:07;8.50;;;5.22;;
81386;SDS011;70842;50.744;7.114;2023-11-19T07:53:33;8.10;;;3.60;;
81386;SDS011;70842;50.744;7.114;2023-11-19T07:56:00;11.43;;;6.95;;
81386;SDS011;70842;50.744;7.114;2023-11-19T07:58:27;8.88;;;4.95;;
81386;SDS011;70842;50.744;7.114;2023-11-19T08:00:54;13.75;;;7.25;;
81386;SDS011;70842;50.744;7.114;2023-11-19T08:03:20;12.45;;;4.90;;
81386;SDS011;70842;50.744;7.114;2023-11-19T08:05:48;9.27;;;5.28;;
81386;SDS011;70842;50.744;7.114;2023-11-19T08:08:15;12.38;;;4.63;;
81386;SDS011;70842;50.744;7.114;2023-11-19T08:10:41;12.38;;;4.22;;
81386;SDS011;70842;50.744;7.114;2023-11-19T08:13:10;8.90;;;3.83;;
81386;SDS011;70842;50.744;7.114;2023-11-19T08:15:37;7.85;;;4.93;;
81386;SDS011;70842;50.744;7.114;2023-11-19T08:18:04;10.80;;;3.45;;
81386;SDS011;70842;50.744;7.114;2023-11-19T08:20:31;12.60;;;4.00;;
81386;SDS011;70842;50.744;7.114;2023-11-19T08:22:58;7.95;;;5.82;;
81386;SDS011;70842;50.744;7.114;2023-11-19T08:25:24;9.95;;;4.68;;
81386;SDS011;70842;50.744;7.114;2023-11-19T08:27:51;13.27;;;5.07;;
81386;SDS011;70842;50.744;7.114;2023-11-19T08:30:17;9.70;;;4.07;;
81386;SDS011;70842;50.744;7.114;2023-11-19T08:32:44;11.85;;;4.13;;
81386;SDS011;70842;50.744;7.114;2023-11-19T08:35:10;11.63;;;5.63;;
81386;SDS011;70842;50.744;7.114;2023-11-19T08:37:37;11.25;;;3.70;;
81386;SDS011;70842;50.744;7.114;2023-11-19T08:40:04;9.27;;;3.83;;
81386;SDS011;70842;50.744;7.114;2023-11-19T08:42:33;11.77;;;4.10;;
81386;SDS011;70842;50.744;7.114;2023-11-19T08:44:59;10.63;;;4.03;;
81386;SDS011;70842;50.744;7.114;2023-11-19T08:47:26;12.68;;;5.10;;
81386;SDS011;70842;50.744;7.114;2023-11-19T08:49:52;11.48;;;3.88;;
81386;SDS011;70842;50.744;7.114;2023-11-19T08:52:22;9.68;;;3.88;;
81386;SDS011;70842;50.744;7.114;2023-11-19T08:54:48;9.07;;;3.33;;
81386;SDS011;70842;50.744;7.114;2023-11-19T08:57:15;10.63;;;4.88;;
81386;SDS011;70842;50.744;7.114;2023-11-19T08:59:41;9.10;;;4.20;;
81386;SDS011;70842;50.744;7.114;2023-11-19T09:02:08;10.40;;;4.40;;
81386;SDS011;70842;50.744;7.114;2023-11-19T09:04:35;12.15;;;3.95;;
81386;SDS011;70842;50.744;7.114;2023-11-19T09:07:02;15.60;;;8.27;;
81386;SDS011;70842;50.744;7.114;2023-11-19T09:09:29;11.90;;;3.42;;
81386;SDS011;70842;50.744;7.114;2023-11-19T09:11:56;14.88;;;6.00;;
81386;SDS011;70842;50.744;7.114;2023-11-19T09:14:22;11.98;;;3.63;;
81386;SDS011;70842;50.744;7.114;2023-11-19T09:16:52;13.25;;;5.28;;
81386;SDS011;70842;50.744;7.114;2023-11-19T09:19:18;10.80;;;4.55;;
81386;SDS011;70842;50.744;7.114;2023-11-19T09:21:45;12.57;;;4.90;;
81386;SDS011;70842;50.744;7.114;2023-11-19T09:24:11;9.50;;;4.82;;
81386;SDS011;70842;50.744;7.114;2023-11-19T09:26:41;9.38;;;4.28;;
81386;SDS011;70842;50.744;7.114;2023-11-19T09:29:08;13.70;;;4.15;;
81386;SDS011;70842;50.744;7.114;2023-11-19T09:31:35;13.07;;;3.55;;
81386;SDS011;70842;50.744;7.114;2023-11-19T09:34:01;14.60;;;5.10;;
81386;SDS011;70842;50.744;7.114;2023-11-19T09:36:27;13.15;;;5.57;;
81386;SDS011;70842;50.744;7.114;2023-11-19T09:38:54;8.50;;;5.28;;
81386;SDS011;70842;50.744;7.114;2023-11-19T09:41:21;8.30;;;3.90;;
81386;SDS011;70842;50.744;7.114;2023-11-19T09:43:50;12.13;;;4.65;;
81386;SDS011;70842;50.744;7.114;2023-11-19T09:46:17;9.77;;;4.10;;
81386;SDS011;70842;50.744;7.114;2023-11-19T09:48:45;18.40;;;5.60;;
81386;SDS011;70842;50.744;7.114;2023-11-19T09:51:14;14.25;;;5.43;;
81386;SDS011;70842;50.744;7.114;2023-11-19T09:53:40;11.02;;;5.03;;
81386;SDS011;70842;50.744;7.114;2023-11-19T09:56:07;16.58;;;5.55;;
81386;SDS011;70842;50.744;7.114;2023-11-19T09:58:34;11.85;;;5.00;;
81386;SDS011;70842;50.744;7.114;2023-11-19T10:01:00;13.63;;;3.50;;
81386;SDS011;70842;50.744;7.114;2023-11-19T10:03:35;8.80;;;3.88;;
81386;SDS011;70842;50.744;7.114;2023-11-19T10:06:06;12.60;;;4.07;;
81386;SDS011;70842;50.744;7.114;2023-11-19T10:08:34;8.80;;;4.03;;
81386;SDS011;70842;50.744;7.114;2023-11-19T10:11:03;14.38;;;7.38;;
81386;SDS011;70842;50.744;7.114;2023-11-19T10:13:30;8.57;;;4.07;;
81386;SDS011;70842;50.744;7.114;2023-11-19T10:15:57;9.73;;;4.53;;
81386;SDS011;70842;50.744;7.114;2023-11-19T10:18:25;12.77;;;3.45;;
81386;SDS011;70842;50.744;7.114;2023-11-19T10:20:52;16.45;;;5.53;;
81386;SDS011;70842;50.744;7.114;2023-11-19T10:23:21;12.70;;;4.55;;
81386;SDS011;70842;50.744;7.114;2023-11-19T10:25:47;13.02;;;3.90;;
81386;SDS011;70842;50.744;7.114;2023-11-19T10:28:17;13.52;;;3.53;;
81386;SDS011;70842;50.744;7.114;2023-11-19T10:30:44;12.30;;;4.68;;
81386;SDS011;70842;50.744;7.114;2023-11-19T10:33:14;16.35;;;4.97;;
81386;SDS011;70842;50.744;7.114;2023-11-19T10:35:53;17.55;;;8.68;;
81386;SDS011;70842;50.744;7.114;2023-11-19T10:38:27;8.90;;;3.20;;
81386;SDS011;70842;50.744;7.114;2023-11-19T10:40:54;11.52;;;3.65;;
81386;SDS011;70842;50.744;7.114;2023-11-19T10:43:21;10.80;;;3.72;;
81386;SDS011;70842;50.744;7.114;2023-11-19T10:45:52;10.02;;;3.88;;
81386;SDS011;70842;50.744;7.114;2023-11-19T10:48:18;12.10;;;4.00;;
81386;SDS011;70842;50.744;7.114;2023-11-19T10:50:46;12.75;;;3.88;;
81386;SDS011;70842;50.744;7.114;2023-11-19T10:53:20;11.27;;;3.58;;
81386;SDS011;70842;50.744;7.114;2023-11-19T10:55:47;9.73;;;3.28;;
81386;SDS011;70842;50.744;7.114;2023-11-19T10:58:15;14.88;;;4.60;;
81386;SDS011;70842;50.744;7.114;2023-11-19T11:00:52;11.13;;;3.30;;
81386;SDS011;70842;50.744;7.114;2023-11-19T11:03:27;12.10;;;5.35;;
81386;SDS011;70842;50.744;7.114;2023-11-19T11:05:58;13.40;;;4.80;;
81386;SDS011;70842;50.744;7.114;2023-11-19T11:08:25;9.55;;;3.92;;
81386;SDS011;70842;50.744;7.114;2023-11-19T11:10:53;10.75;;;3.97;;
81386;SDS011;70842;50.744;7.114;2023-11-19T11:13:23;12.25;;;4.45;;
81386;SDS011;70842;50.744;7.114;2023-11-19T11:15:51;13.10;;;3.88;;
81386;SDS011;70842;50.744;7.114;2023-11-19T11:18:21;11.55;;;5.03;;
81386;SDS011;70842;50.744;7.114;2023-11-19T11:20:47;9.23;;;3.47;;
81386;SDS011;70842;50.744;7.114;2023-11-19T11:26:15;9.68;;;2.83;;
81386;SDS011;70842;50.744;7.114;2023-11-19T11:29:10;10.77;;;3.63;;
81386;SDS011;70842;50.744;7.114;2023-11-19T11:31:52;15.10;;;5.50;;
81386;SDS011;70842;50.744;7.114;2023-11-19T11:34:39;10.75;;;5.35;;
81386;SDS011;70842;50.744;7.114;2023-11-19T11:37:28;7.38;;;4.07;;
81386;SDS011;70842;50.744;7.114;2023-11-19T11:40:01;11.05;;;3.95;;
81386;SDS011;70842;50.744;7.114;2023-11-19T11:50:09;10.32;;;4.70;;
81386;SDS011;70842;50.744;7.114;2023-11-19T11:58:18;13.15;;;6.45;;
81386;SDS011;70842;50.744;7.114;2023-11-19T12:00:45;9.23;;;3.55;;
81386;SDS011;70842;50.744;7.114;2023-11-19T12:03:13;10.68;;;5.25;;
81386;SDS011;70842;50.744;7.114;2023-11-19T12:05:41;10.20;;;3.85;;
81386;SDS011;70842;50.744;7.114;2023-11-19T12:08:13;6.90;;;3.65;;
81386;SDS011;70842;50.744;7.114;2023-11-19T12:10:45;8.85;;;4.13;;
81386;SDS011;70842;50.744;7.114;2023-11-19T12:13:25;7.95;;;3.75;;
81386;SDS011;70842;50.744;7.114;2023-11-19T12:16:09;8.60;;;3.55;;
81386;SDS011;70842;50.744;7.114;2023-11-19T12:18:36;12.55;;;6.60;;
81386;SDS011;70842;50.744;7.114;2023-11-19T12:21:05;7.40;;;6.47;;
81386;SDS011;70842;50.744;7.114;2023-11-19T12:23:32;10.02;;;4.25;;
81386;SDS011;70842;50.744;7.114;2023-11-19T12:25:58;9.57;;;6.00;;
81386;SDS011;70842;50.744;7.114;2023-11-19T12:28:25;11.43;;;3.88;;
81386;SDS011;70842;50.744;7.114;2023-11-19T12:31:06;10.90;;;4.15;;
81386;SDS011;70842;50.744;7.114;2023-11-19T12:33:36;11.23;;;6.43;;
81386;SDS011;70842;50.744;7.114;2023-11-19T12:36:04;11.00;;;4.20;;
81386;SDS011;70842;50.744;7.114;2023-11-19T12:38:31;8.38;;;4.20;;
81386;SDS011;70842;50.744;7.114;2023-11-19T12:41:02;11.57;;;4.53;;
81386;SDS011;70842;50.744;7.114;2023-11-19T12:43:32;9.13;;;3.75;;
81386;SDS011;70842;50.744;7.114;2023-11-19T12:46:21;8.88;;;4.00;;
81386;SDS011;70842;50.744;7.114;2023-11-19T12:48:49;8.30;;;4.10;;
81386;SDS011;70842;50.744;7.114;2023-11-19T12:51:17;9.05;;;4.57;;
81386;SDS011;70842;50.744;7.114;2023-11-19T12:53:47;11.57;;;3.58;;
81386;SDS011;70842;50.744;7.114;2023-11-19T12:56:21;12.20;;;5.43;;
81386;SDS011;70842;50.744;7.114;2023-11-19T12:58:48;9.27;;;5.55;;
81386;SDS011;70842;50.744;7.114;2023-11-19T13:01:16;11.35;;;7.45;;
81386;SDS011;70842;50.744;7.114;2023-11-19T13:03:45;8.90;;;3.85;;
81386;SDS011;70842;50.744;7.114;2023-11-19T13:06:12;11.77;;;4.53;;
81386;SDS011;70842;50.744;7.114;2023-11-19T13:08:42;9.02;;;6.13;;
81386;SDS011;70842;50.744;7.114;2023-11-19T13:11:11;10.18;;;4.30;;
81386;SDS011;70842;50.744;7.114;2023-11-19T13:13:54;11.02;;;4.88;;
81386;SDS011;70842;50.744;7.114;2023-11-19T13:16:24;9.07;;;4.82;;
81386;SDS011;70842;50.744;7.114;2023-11-19T13:18:52;10.85;;;4.10;;
81386;SDS011;70842;50.744;7.114;2023-11-19T13:21:19;8.95;;;3.55;;
81386;SDS011;70842;50.744;7.114;2023-11-19T13:23:45;11.95;;;4.72;;
81386;SDS011;70842;50.744;7.114;2023-11-19T13:26:11;11.65;;;4.80;;
81386;SDS011;70842;50.744;7.114;2023-11-19T13:28:39;13.63;;;4.32;;
81386;SDS011;70842;50.744;7.114;2023-11-19T13:31:05;12.32;;;3.47;;
81386;SDS011;70842;50.744;7.114;2023-11-19T13:33:32;12.45;;;5.20;;
81386;SDS011;70842;50.744;7.114;2023-11-19T13:35:59;14.70;;;8.35;;
81386;SDS011;70842;50.744;7.114;2023-11-19T13:38:32;9.48;;;3.53;;
81386;SDS011;70842;50.744;7.114;2023-11-19T13:40:59;9.35;;;3.92;;
81386;SDS011;70842;50.744;7.114;2023-11-19T13:43:26;8.93;;;5.65;;
81386;SDS011;70842;50.744;7.114;2023-11-19T13:45:54;10.90;;;5.93;;
81386;SDS011;70842;50.744;7.114;2023-11-19T13:48:24;10.10;;;3.92;;
81386;SDS011;70842;50.744;7.114;2023-11-19T13:50:53;8.02;;;3.65;;
81386;SDS011;70842;50.744;7.114;2023-11-19T13:53:20;10.32;;;4.72;;
81386;SDS011;70842;50.744;7.114;2023-11-19T13:55:47;21.55;;;7.10;;
81386;SDS011;70842;50.744;7.114;2023-11-19T13:58:16;10.32;;;5.40;;
81386;SDS011;70842;50.744;7.114;2023-11-19T14:00:42;11.15;;;4.22;;
81386;SDS011;70842;50.744;7.114;2023-11-19T14:03:09;9.50;;;4.88;;
81386;SDS011;70842;50.744;7.114;2023-11-19T14:05:39;9.50;;;3.55;;
81386;SDS011;70842;50.744;7.114;2023-11-19T14:08:07;10.32;;;5.10;;
81386;SDS011;70842;50.744;7.114;2023-11-19T14:10:50;8.88;;;3.20;;
81386;SDS011;70842;50.744;7.114;2023-11-19T14:13:17;14.45;;;3.78;;
81386;SDS011;70842;50.744;7.114;2023-11-19T14:15:44;6.78;;;3.55;;
81386;SDS011;70842;50.744;7.114;2023-11-19T14:18:14;10.82;;;3.58;;
81386;SDS011;70842;50.744;7.114;2023-11-19T14:20:40;8.65;;;4.85;;
81386;SDS011;70842;50.744;7.114;2023-11-19T14:23:07;8.38;;;4.28;;
81386;SDS011;70842;50.744;7.114;2023-11-19T14:25:36;11.23;;;5.28;;
81386;SDS011;70842;50.744;7.114;2023-11-19T14:28:03;12.70;;;3.08;;
81386;SDS011;70842;50.744;7.114;2023-11-19T14:30:32;9.00;;;3.63;;
81386;SDS011;70842;50.744;7.114;2023-11-19T14:32:58;8.10;;;3.97;;
81386;SDS011;70842;50.744;7.114;2023-11-19T14:35:25;9.23;;;3.85;;
81386;SDS011;70842;50.744;7.114;2023-11-19T14:37:51;8.57;;;4.38;;
81386;SDS011;70842;50.744;7.114;2023-11-19T14:40:18;8.90;;;3.67;;
81386;SDS011;70842;50.744;7.114;2023-11-19T14:42:44;9.48;;;2.95;;
81386;SDS011;70842;50.744;7.114;2023-11-19T14:45:11;6.63;;;4.10;;
81386;SDS011;70842;50.744;7.114;2023-11-19T14:47:38;8.00;;;4.13;;
81386;SDS011;70842;50.744;7.114;2023-11-19T14:50:05;13.73;;;4.32;;
81386;SDS011;70842;50.744;7.114;2023-11-19T14:52:34;9.80;;;3.60;;
81386;SDS011;70842;50.744;7.114;2023-11-19T14:55:01;7.28;;;3.60;;
81386;SDS011;70842;50.744;7.114;2023-11-19T14:57:28;10.75;;;3.92;;
81386;SDS011;70842;50.744;7.114;2023-11-19T14:59:55;9.02;;;5.40;;
81386;SDS011;70842;50.744;7.114;2023-11-19T15:02:21;6.45;;;3.10;;
81386;SDS011;70842;50.744;7.114;2023-11-19T15:04:48;9.57;;;4.00;;